sensor_id;sensor_type;location;lat;lon;timestamp;pressure;altitude;pressure_sealevel;temperature;humidity
43119;BME280;28729;49.838;8.650;2023-06-10T00:00:59;99446.09;;;18.75;76.48
43119;BME280;28729;49.838;8.650;2023-06-10T00:05:01;99449.78;;;18.70;75.93
43119;BME280;28729;49.838;8.650;2023-06-10T00:09:04;99443.69;;;18.68;75.92
43119;BME280;28729;49.838;8.650;2023-06-10T00:13:07;99443.69;;;18.68;75.30
43119;BME280;28729;49.838;8.650;2023-06-10T00:17:12;99439.56;;;18.65;75.31
43119;BME280;28729;49.838;8.650;2023-06-10T00:21:17;99441.00;;;18.63;74.62
43119;BME280;28729;49.838;8.650;2023-06-10T00:25:19;99442.66;;;18.64;74.48
43119;BME280;28729;49.838;8.650;2023-06-10T00:29:21;99443.28;;;18.61;75.04
43119;BME280;28729;49.838;8.650;2023-06-10T00:33:22;99446.16;;;18.56;75.53
43119;BME280;28729;49.838;8.650;2023-06-10T00:37:24;99443.81;;;18.49;75.57
43119;BME280;28729;49.838;8.650;2023-06-10T00:41:26;99446.06;;;18.47;74.41
43119;BME280;28729;49.838;8.650;2023-06-10T00:45:28;99444.13;;;18.48;74.74
43119;BME280;28729;49.838;8.650;2023-06-10T00:49:32;99441.44;;;18.42;76.49
43119;BME280;28729;49.838;8.650;2023-06-10T00:53:39;99445.16;;;18.38;77.43
43119;BME280;28729;49.838;8.650;2023-06-10T00:57:41;99448.88;;;18.33;76.09
43119;BME280;28729;49.838;8.650;2023-06-10T01:01:46;99453.31;;;18.34;76.19
43119;BME280;28729;49.838;8.650;2023-06-10T01:06:02;99450.84;;;18.33;77.82
43119;BME280;28729;49.838;8.650;2023-06-10T01:10:12;99452.09;;;18.27;79.81
43119;BME280;28729;49.838;8.650;2023-06-10T01:14:18;99448.38;;;18.17;79.21
43119;BME280;28729;49.838;8.650;2023-06-10T01:18:20;99456.13;;;18.20;79.55
43119;BME280;28729;49.838;8.650;2023-06-10T01:22:27;99445.88;;;18.16;80.03
43119;BME280;28729;49.838;8.650;2023-06-10T01:26:38;99439.91;;;18.09;80.22
43119;BME280;28729;49.838;8.650;2023-06-10T01:31:09;99456.31;;;18.10;80.97
43119;BME280;28729;49.838;8.650;2023-06-10T01:35:17;99445.25;;;18.05;81.44
43119;BME280;28729;49.838;8.650;2023-06-10T01:39:23;99447.63;;;17.98;83.83
43119;BME280;28729;49.838;8.650;2023-06-10T01:43:26;99448.03;;;17.91;84.34
43119;BME280;28729;49.838;8.650;2023-06-10T01:47:28;99451.53;;;17.83;84.23
43119;BME280;28729;49.838;8.650;2023-06-10T01:51:30;99449.03;;;17.82;85.38
43119;BME280;28729;49.838;8.650;2023-06-10T01:55:33;99451.91;;;17.76;86.35
43119;BME280;28729;49.838;8.650;2023-06-10T01:59:35;99459.00;;;17.69;86.47
43119;BME280;28729;49.838;8.650;2023-06-10T02:03:39;99459.91;;;17.64;86.63
43119;BME280;28729;49.838;8.650;2023-06-10T02:07:41;99449.59;;;17.65;86.96
43119;BME280;28729;49.838;8.650;2023-06-10T02:11:42;99463.75;;;17.68;86.58
43119;BME280;28729;49.838;8.650;2023-06-10T02:15:44;99458.69;;;17.70;87.66
43119;BME280;28729;49.838;8.650;2023-06-10T02:19:46;99454.34;;;17.64;88.13
43119;BME280;28729;49.838;8.650;2023-06-10T02:23:55;99463.94;;;17.58;88.56
43119;BME280;28729;49.838;8.650;2023-06-10T02:27:57;99461.75;;;17.55;88.32
43119;BME280;28729;49.838;8.650;2023-06-10T02:31:59;99452.88;;;17.53;86.86
43119;BME280;28729;49.838;8.650;2023-06-10T02:36:01;99460.91;;;17.54;87.22
43119;BME280;28729;49.838;8.650;2023-06-10T02:40:03;99462.38;;;17.52;87.15
43119;BME280;28729;49.838;8.650;2023-06-10T02:44:06;99462.44;;;17.47;87.19
43119;BME280;28729;49.838;8.650;2023-06-10T02:48:08;99454.69;;;17.44;87.18
43119;BME280;28729;49.838;8.650;2023-06-10T02:52:11;99458.97;;;17.36;88.02
43119;BME280;28729;49.838;8.650;2023-06-10T02:56:16;99464.94;;;17.29;88.05
43119;BME280;28729;49.838;8.650;2023-06-10T03:00:20;99463.91;;;17.25;89.16
43119;BME280;28729;49.838;8.650;2023-06-10T03:04:23;99473.75;;;17.18;89.85
43119;BME280;28729;49.838;8.650;2023-06-10T03:08:34;99478.88;;;17.11;89.76
43119;BME280;28729;49.838;8.650;2023-06-10T03:12:40;99473.06;;;17.07;90.09
43119;BME280;28729;49.838;8.650;2023-06-10T03:16:43;99474.22;;;17.06;89.98
43119;BME280;28729;49.838;8.650;2023-06-10T03:20:46;99476.78;;;17.02;91.28
43119;BME280;28729;49.838;8.650;2023-06-10T03:24:50;99475.94;;;17.02;91.07
43119;BME280;28729;49.838;8.650;2023-06-10T03:28:53;99478.81;;;16.97;91.46
43119;BME280;28729;49.838;8.650;2023-06-10T03:32:57;99485.03;;;16.89;92.95
43119;BME280;28729;49.838;8.650;2023-06-10T03:37:02;99492.41;;;16.79;93.57
43119;BME280;28729;49.838;8.650;2023-06-10T03:41:05;99477.19;;;16.72;93.63
43119;BME280;28729;49.838;8.650;2023-06-10T03:45:08;99486.41;;;16.67;94.16
43119;BME280;28729;49.838;8.650;2023-06-10T03:49:11;99482.03;;;16.61;94.68
43119;BME280;28729;49.838;8.650;2023-06-10T03:53:13;99487.72;;;16.51;95.71
43119;BME280;28729;49.838;8.650;2023-06-10T03:57:17;99485.03;;;16.46;95.95
43119;BME280;28729;49.838;8.650;2023-06-10T04:01:19;99486.13;;;16.45;95.97
43119;BME280;28729;49.838;8.650;2023-06-10T04:05:22;99492.59;;;16.40;96.75
43119;BME280;28729;49.838;8.650;2023-06-10T04:09:26;99488.84;;;16.50;96.39
43119;BME280;28729;49.838;8.650;2023-06-10T04:13:27;99501.47;;;16.66;95.46
43119;BME280;28729;49.838;8.650;2023-06-10T04:17:32;99500.84;;;16.69;96.08
43119;BME280;28729;49.838;8.650;2023-06-10T04:21:34;99507.78;;;16.72;97.60
43119;BME280;28729;49.838;8.650;2023-06-10T04:25:37;99503.00;;;16.77;97.48
43119;BME280;28729;49.838;8.650;2023-06-10T04:29:39;99501.78;;;16.83;96.41
43119;BME280;28729;49.838;8.650;2023-06-10T04:33:41;99498.88;;;16.94;95.70
43119;BME280;28729;49.838;8.650;2023-06-10T04:37:45;99497.41;;;17.01;95.40
43119;BME280;28729;49.838;8.650;2023-06-10T04:41:47;99500.91;;;17.07;94.43
43119;BME280;28729;49.838;8.650;2023-06-10T04:45:49;99494.13;;;17.13;93.50
43119;BME280;28729;49.838;8.650;2023-06-10T04:49:51;99500.72;;;17.22;92.51
43119;BME280;28729;49.838;8.650;2023-06-10T04:53:53;99501.38;;;17.33;92.39
43119;BME280;28729;49.838;8.650;2023-06-10T04:57:55;99499.25;;;17.44;91.44
43119;BME280;28729;49.838;8.650;2023-06-10T05:01:57;99498.19;;;17.59;90.71
43119;BME280;28729;49.838;8.650;2023-06-10T05:05:58;99505.00;;;17.66;90.88
43119;BME280;28729;49.838;8.650;2023-06-10T05:10:00;99509.69;;;17.71;90.61
43119;BME280;28729;49.838;8.650;2023-06-10T05:14:03;99510.41;;;17.76;89.95
43119;BME280;28729;49.838;8.650;2023-06-10T05:18:04;99514.28;;;17.81;90.50
43119;BME280;28729;49.838;8.650;2023-06-10T05:22:07;99516.38;;;17.89;90.08
43119;BME280;28729;49.838;8.650;2023-06-10T05:26:09;99515.16;;;17.95;90.09
43119;BME280;28729;49.838;8.650;2023-06-10T05:30:11;99522.28;;;18.01;89.74
43119;BME280;28729;49.838;8.650;2023-06-10T05:34:14;99524.25;;;18.14;88.77
43119;BME280;28729;49.838;8.650;2023-06-10T05:38:16;99525.72;;;18.26;89.10
43119;BME280;28729;49.838;8.650;2023-06-10T05:42:18;99524.19;;;18.33;87.44
43119;BME280;28729;49.838;8.650;2023-06-10T05:46:20;99533.00;;;18.54;86.29
43119;BME280;28729;49.838;8.650;2023-06-10T05:50:23;99534.03;;;18.72;85.31
43119;BME280;28729;49.838;8.650;2023-06-10T05:54:26;99534.06;;;18.86;84.61
43119;BME280;28729;49.838;8.650;2023-06-10T05:58:30;99537.34;;;19.02;83.16
43119;BME280;28729;49.838;8.650;2023-06-10T06:02:33;99532.84;;;19.15;82.63
43119;BME280;28729;49.838;8.650;2023-06-10T06:06:35;99540.06;;;19.29;82.32
43119;BME280;28729;49.838;8.650;2023-06-10T06:10:37;99539.22;;;19.43;82.08
43119;BME280;28729;49.838;8.650;2023-06-10T06:14:39;99534.72;;;19.55;80.89
43119;BME280;28729;49.838;8.650;2023-06-10T06:18:41;99540.47;;;19.73;79.28
43119;BME280;28729;49.838;8.650;2023-06-10T06:22:43;99539.75;;;19.90;78.54
43119;BME280;28729;49.838;8.650;2023-06-10T06:26:45;99540.19;;;20.06;77.52
43119;BME280;28729;49.838;8.650;2023-06-10T06:30:48;99542.25;;;20.22;77.44
43119;BME280;28729;49.838;8.650;2023-06-10T06:34:50;99548.28;;;20.38;77.16
43119;BME280;28729;49.838;8.650;2023-06-10T06:38:56;99538.34;;;20.55;76.17
43119;BME280;28729;49.838;8.650;2023-06-10T06:43:01;99535.78;;;20.76;73.77
43119;BME280;28729;49.838;8.650;2023-06-10T06:47:11;99540.63;;;21.01;72.42
43119;BME280;28729;49.838;8.650;2023-06-10T06:51:14;99539.34;;;21.16;71.68
43119;BME280;28729;49.838;8.650;2023-06-10T06:55:16;99544.69;;;21.44;71.01
43119;BME280;28729;49.838;8.650;2023-06-10T06:59:18;99542.69;;;21.70;68.81
43119;BME280;28729;49.838;8.650;2023-06-10T07:03:21;99545.34;;;21.93;68.59
43119;BME280;28729;49.838;8.650;2023-06-10T07:07:23;99552.22;;;22.04;67.32
43119;BME280;28729;49.838;8.650;2023-06-10T07:11:25;99555.38;;;22.28;66.66
43119;BME280;28729;49.838;8.650;2023-06-10T07:15:28;99554.94;;;22.56;65.16
43119;BME280;28729;49.838;8.650;2023-06-10T07:19:30;99558.63;;;22.78;64.17
43119;BME280;28729;49.838;8.650;2023-06-10T07:23:32;99558.88;;;23.02;64.20
43119;BME280;28729;49.838;8.650;2023-06-10T07:27:33;99566.31;;;23.28;61.86
43119;BME280;28729;49.838;8.650;2023-06-10T07:31:38;99565.16;;;23.50;59.23
43119;BME280;28729;49.838;8.650;2023-06-10T07:35:40;99566.78;;;23.59;58.83
43119;BME280;28729;49.838;8.650;2023-06-10T07:39:44;99569.72;;;23.84;58.46
43119;BME280;28729;49.838;8.650;2023-06-10T07:43:46;99559.78;;;23.86;58.32
43119;BME280;28729;49.838;8.650;2023-06-10T07:47:49;99567.28;;;24.16;57.35
43119;BME280;28729;49.838;8.650;2023-06-10T07:51:54;99570.97;;;24.41;56.43
43119;BME280;28729;49.838;8.650;2023-06-10T07:55:58;99565.50;;;24.44;55.14
43119;BME280;28729;49.838;8.650;2023-06-10T07:59:59;99568.44;;;24.48;54.22
43119;BME280;28729;49.838;8.650;2023-06-10T08:04:12;99566.69;;;24.55;53.90
43119;BME280;28729;49.838;8.650;2023-06-10T08:08:14;99563.09;;;24.79;54.71
43119;BME280;28729;49.838;8.650;2023-06-10T08:12:16;99570.03;;;25.07;53.66
43119;BME280;28729;49.838;8.650;2023-06-10T08:16:19;99564.66;;;25.26;51.52
43119;BME280;28729;49.838;8.650;2023-06-10T08:20:23;99571.75;;;25.48;51.38
43119;BME280;28729;49.838;8.650;2023-06-10T08:24:26;99569.97;;;25.68;51.90
43119;BME280;28729;49.838;8.650;2023-06-10T08:28:28;99575.91;;;25.91;50.21
43119;BME280;28729;49.838;8.650;2023-06-10T08:32:30;99579.13;;;26.05;49.16
43119;BME280;28729;49.838;8.650;2023-06-10T08:36:34;99570.16;;;26.16;48.22
43119;BME280;28729;49.838;8.650;2023-06-10T08:40:36;99574.00;;;26.23;48.46
43119;BME280;28729;49.838;8.650;2023-06-10T08:44:38;99572.28;;;26.34;48.03
43119;BME280;28729;49.838;8.650;2023-06-10T08:48:43;99579.00;;;26.58;47.82
43119;BME280;28729;49.838;8.650;2023-06-10T08:52:48;99561.53;;;26.68;47.47
43119;BME280;28729;49.838;8.650;2023-06-10T08:56:54;99569.19;;;26.84;46.31
43119;BME280;28729;49.838;8.650;2023-06-10T09:00:57;99567.06;;;26.96;45.79
43119;BME280;28729;49.838;8.650;2023-06-10T09:05:01;99555.13;;;27.03;45.85
43119;BME280;28729;49.838;8.650;2023-06-10T09:09:05;99559.59;;;27.04;44.71
43119;BME280;28729;49.838;8.650;2023-06-10T09:13:07;99561.38;;;27.12;45.67
43119;BME280;28729;49.838;8.650;2023-06-10T09:17:10;99549.25;;;27.27;44.81
43119;BME280;28729;49.838;8.650;2023-06-10T09:21:12;99549.31;;;27.47;44.28
43119;BME280;28729;49.838;8.650;2023-06-10T09:25:15;99549.34;;;27.66;43.84
43119;BME280;28729;49.838;8.650;2023-06-10T09:29:19;99541.00;;;27.93;43.61
43119;BME280;28729;49.838;8.650;2023-06-10T09:33:24;99539.66;;;28.06;42.61
43119;BME280;28729;49.838;8.650;2023-06-10T09:37:30;99538.53;;;28.11;42.81
43119;BME280;28729;49.838;8.650;2023-06-10T09:41:35;99536.22;;;28.16;42.30
43119;BME280;28729;49.838;8.650;2023-06-10T09:45:40;99539.84;;;28.36;42.10
43119;BME280;28729;49.838;8.650;2023-06-10T09:49:41;99529.91;;;28.46;41.43
43119;BME280;28729;49.838;8.650;2023-06-10T09:53:48;99539.25;;;28.70;40.90
43119;BME280;28729;49.838;8.650;2023-06-10T09:57:53;99533.44;;;28.85;40.03
43119;BME280;28729;49.838;8.650;2023-06-10T10:01:56;99518.94;;;28.91;38.61
43119;BME280;28729;49.838;8.650;2023-06-10T10:05:58;99516.75;;;29.03;38.84
43119;BME280;28729;49.838;8.650;2023-06-10T10:10:01;99517.72;;;29.15;39.02
43119;BME280;28729;49.838;8.650;2023-06-10T10:14:03;99515.00;;;29.22;38.48
43119;BME280;28729;49.838;8.650;2023-06-10T10:18:14;99515.81;;;29.52;37.83
43119;BME280;28729;49.838;8.650;2023-06-10T10:22:25;99513.84;;;29.57;37.21
43119;BME280;28729;49.838;8.650;2023-06-10T10:26:30;99518.03;;;29.63;37.35
43119;BME280;28729;49.838;8.650;2023-06-10T10:30:39;99500.03;;;29.85;37.14
43119;BME280;28729;49.838;8.650;2023-06-10T10:34:49;99508.56;;;29.85;36.39
43119;BME280;28729;49.838;8.650;2023-06-10T10:38:51;99491.97;;;29.87;36.16
43119;BME280;28729;49.838;8.650;2023-06-10T10:42:54;99492.69;;;30.18;36.73
43119;BME280;28729;49.838;8.650;2023-06-10T10:47:02;99491.78;;;30.48;36.01
43119;BME280;28729;49.838;8.650;2023-06-10T10:51:05;99488.50;;;30.46;34.27
43119;BME280;28729;49.838;8.650;2023-06-10T10:55:12;99480.06;;;30.53;33.62
43119;BME280;28729;49.838;8.650;2023-06-10T10:59:15;99485.22;;;30.84;32.66
43119;BME280;28729;49.838;8.650;2023-06-10T11:03:21;99473.97;;;31.02;32.00
43119;BME280;28729;49.838;8.650;2023-06-10T11:07:29;99473.22;;;31.13;32.71
43119;BME280;28729;49.838;8.650;2023-06-10T11:11:31;99479.38;;;31.22;32.56
43119;BME280;28729;49.838;8.650;2023-06-10T11:15:38;99465.72;;;31.52;32.01
43119;BME280;28729;49.838;8.650;2023-06-10T11:19:44;99467.97;;;31.95;31.37
43119;BME280;28729;49.838;8.650;2023-06-10T11:23:49;99469.25;;;32.22;29.94
43119;BME280;28729;49.838;8.650;2023-06-10T11:27:52;99462.69;;;32.18;29.88
43119;BME280;28729;49.838;8.650;2023-06-10T11:31:54;99457.41;;;32.24;29.62
43119;BME280;28729;49.838;8.650;2023-06-10T11:35:57;99465.56;;;32.36;29.71
43119;BME280;28729;49.838;8.650;2023-06-10T11:40:00;99472.09;;;32.40;29.30
43119;BME280;28729;49.838;8.650;2023-06-10T11:44:13;99467.66;;;32.64;29.01
43119;BME280;28729;49.838;8.650;2023-06-10T11:48:20;99452.16;;;32.80;27.91
43119;BME280;28729;49.838;8.650;2023-06-10T11:52:29;99441.59;;;32.70;28.10
43119;BME280;28729;49.838;8.650;2023-06-10T11:56:33;99463.56;;;32.69;28.81
43119;BME280;28729;49.838;8.650;2023-06-10T12:00:47;99454.63;;;32.81;28.49
43119;BME280;28729;49.838;8.650;2023-06-10T12:04:48;99435.84;;;32.98;27.88
43119;BME280;28729;49.838;8.650;2023-06-10T12:08:50;99447.25;;;32.98;28.37
43119;BME280;28729;49.838;8.650;2023-06-10T12:12:53;99433.31;;;33.25;27.99
43119;BME280;28729;49.838;8.650;2023-06-10T12:16:56;99429.03;;;33.84;26.73
43119;BME280;28729;49.838;8.650;2023-06-10T12:20:58;99422.41;;;34.53;26.79
43119;BME280;28729;49.838;8.650;2023-06-10T12:25:02;99432.47;;;35.55;25.40
43119;BME280;28729;49.838;8.650;2023-06-10T12:29:32;99435.44;;;36.60;24.80
43119;BME280;28729;49.838;8.650;2023-06-10T12:33:34;99421.28;;;37.36;23.38
43119;BME280;28729;49.838;8.650;2023-06-10T12:37:36;99432.13;;;37.88;22.50
43119;BME280;28729;49.838;8.650;2023-06-10T12:41:48;99424.25;;;38.61;22.37
43119;BME280;28729;49.838;8.650;2023-06-10T12:45:50;99417.25;;;39.08;21.52
43119;BME280;28729;49.838;8.650;2023-06-10T12:49:52;99425.03;;;39.53;22.02
43119;BME280;28729;49.838;8.650;2023-06-10T12:53:54;99434.72;;;39.88;20.69
43119;BME280;28729;49.838;8.650;2023-06-10T12:57:56;99427.09;;;40.45;20.31
43119;BME280;28729;49.838;8.650;2023-06-10T13:01:58;99429.50;;;39.12;21.47
43119;BME280;28729;49.838;8.650;2023-06-10T13:06:01;99422.63;;;37.71;22.71
43119;BME280;28729;49.838;8.650;2023-06-10T13:10:03;99415.34;;;38.39;21.85
43119;BME280;28729;49.838;8.650;2023-06-10T13:14:05;99411.50;;;39.08;21.19
43119;BME280;28729;49.838;8.650;2023-06-10T13:18:08;99408.97;;;39.94;20.98
43119;BME280;28729;49.838;8.650;2023-06-10T13:22:10;99417.63;;;40.58;20.11
43119;BME280;28729;49.838;8.650;2023-06-10T13:26:12;99400.81;;;40.91;19.92
43119;BME280;28729;49.838;8.650;2023-06-10T13:30:15;99406.22;;;41.45;19.33
43119;BME280;28729;49.838;8.650;2023-06-10T13:34:17;99400.88;;;42.19;18.00
43119;BME280;28729;49.838;8.650;2023-06-10T13:38:19;99408.84;;;42.37;17.55
43119;BME280;28729;49.838;8.650;2023-06-10T13:42:21;99392.03;;;42.63;16.68
43119;BME280;28729;49.838;8.650;2023-06-10T13:46:23;99389.94;;;42.64;17.55
43119;BME280;28729;49.838;8.650;2023-06-10T13:50:25;99381.63;;;43.21;17.23
43119;BME280;28729;49.838;8.650;2023-06-10T13:54:28;99381.09;;;43.50;17.55
43119;BME280;28729;49.838;8.650;2023-06-10T13:58:29;99376.38;;;43.71;17.30
43119;BME280;28729;49.838;8.650;2023-06-10T14:02:31;99374.78;;;44.12;16.57
43119;BME280;28729;49.838;8.650;2023-06-10T14:06:33;99382.31;;;41.98;17.78
43119;BME280;28729;49.838;8.650;2023-06-10T14:10:35;99385.06;;;41.27;18.29
43119;BME280;28729;49.838;8.650;2023-06-10T14:14:37;99374.03;;;41.87;17.62
43119;BME280;28729;49.838;8.650;2023-06-10T14:18:39;99361.13;;;42.69;17.32
43119;BME280;28729;49.838;8.650;2023-06-10T14:22:41;99367.72;;;43.62;16.76
43119;BME280;28729;49.838;8.650;2023-06-10T14:26:43;99372.69;;;44.13;16.49
43119;BME280;28729;49.838;8.650;2023-06-10T14:30:45;99355.38;;;44.76;15.66
43119;BME280;28729;49.838;8.650;2023-06-10T14:34:47;99352.00;;;45.46;15.66
43119;BME280;28729;49.838;8.650;2023-06-10T14:38:50;99341.22;;;44.93;16.06
43119;BME280;28729;49.838;8.650;2023-06-10T14:42:52;99341.47;;;45.34;15.59
43119;BME280;28729;49.838;8.650;2023-06-10T14:46:54;99348.78;;;45.14;16.00
43119;BME280;28729;49.838;8.650;2023-06-10T14:50:56;99352.41;;;45.39;15.56
43119;BME280;28729;49.838;8.650;2023-06-10T14:54:58;99348.63;;;44.94;15.98
43119;BME280;28729;49.838;8.650;2023-06-10T14:58:59;99344.56;;;43.16;16.99
43119;BME280;28729;49.838;8.650;2023-06-10T15:03:02;99344.88;;;41.41;17.77
43119;BME280;28729;49.838;8.650;2023-06-10T15:07:05;99339.88;;;41.20;18.06
43119;BME280;28729;49.838;8.650;2023-06-10T15:11:06;99339.09;;;41.73;17.91
43119;BME280;28729;49.838;8.650;2023-06-10T15:15:08;99334.19;;;42.32;17.84
43119;BME280;28729;49.838;8.650;2023-06-10T15:19:11;99328.25;;;42.36;16.88
43119;BME280;28729;49.838;8.650;2023-06-10T15:23:13;99331.88;;;40.80;17.91
43119;BME280;28729;49.838;8.650;2023-06-10T15:27:16;99333.13;;;39.00;19.97
43119;BME280;28729;49.838;8.650;2023-06-10T15:31:19;99335.03;;;37.39;21.46
43119;BME280;28729;49.838;8.650;2023-06-10T15:35:20;99339.03;;;36.15;22.26
43119;BME280;28729;49.838;8.650;2023-06-10T15:39:23;99316.00;;;35.07;22.99
43119;BME280;28729;49.838;8.650;2023-06-10T15:43:26;99326.72;;;34.16;24.05
43119;BME280;28729;49.838;8.650;2023-06-10T15:47:28;99319.00;;;33.50;24.30
43119;BME280;28729;49.838;8.650;2023-06-10T15:51:30;99311.44;;;33.15;25.16
43119;BME280;28729;49.838;8.650;2023-06-10T15:55:33;99318.44;;;32.89;25.63
43119;BME280;28729;49.838;8.650;2023-06-10T15:59:35;99312.41;;;32.51;26.37
43119;BME280;28729;49.838;8.650;2023-06-10T16:03:37;99308.78;;;32.11;26.82
43119;BME280;28729;49.838;8.650;2023-06-10T16:07:40;99306.72;;;31.76;27.30
43119;BME280;28729;49.838;8.650;2023-06-10T16:11:42;99294.50;;;31.61;27.38
43119;BME280;28729;49.838;8.650;2023-06-10T16:15:44;99304.63;;;31.41;27.95
43119;BME280;28729;49.838;8.650;2023-06-10T16:19:46;99300.47;;;31.20;28.33
43119;BME280;28729;49.838;8.650;2023-06-10T16:23:48;99305.03;;;31.43;28.22
43119;BME280;28729;49.838;8.650;2023-06-10T16:27:50;99297.25;;;31.32;28.43
43119;BME280;28729;49.838;8.650;2023-06-10T16:31:52;99299.19;;;31.03;28.97
43119;BME280;28729;49.838;8.650;2023-06-10T16:35:55;99300.38;;;30.88;29.90
43119;BME280;28729;49.838;8.650;2023-06-10T16:39:57;99298.66;;;30.76;29.28
43119;BME280;28729;49.838;8.650;2023-06-10T16:43:59;99308.28;;;30.57;29.59
43119;BME280;28729;49.838;8.650;2023-06-10T16:48:05;99299.31;;;30.52;29.72
43119;BME280;28729;49.838;8.650;2023-06-10T16:52:08;99302.53;;;30.43;30.27
43119;BME280;28729;49.838;8.650;2023-06-10T16:56:09;99294.69;;;30.26;30.28
43119;BME280;28729;49.838;8.650;2023-06-10T17:00:11;99300.69;;;30.17;29.94
43119;BME280;28729;49.838;8.650;2023-06-10T17:04:16;99307.97;;;30.14;30.32
43119;BME280;28729;49.838;8.650;2023-06-10T17:08:18;99317.38;;;30.22;31.14
43119;BME280;28729;49.838;8.650;2023-06-10T17:12:21;99317.81;;;30.28;31.70
43119;BME280;28729;49.838;8.650;2023-06-10T17:16:23;99329.88;;;30.14;32.30
43119;BME280;28729;49.838;8.650;2023-06-10T17:20:25;99330.97;;;29.98;32.48
43119;BME280;28729;49.838;8.650;2023-06-10T17:24:30;99346.50;;;29.67;32.97
43119;BME280;28729;49.838;8.650;2023-06-10T17:28:32;99345.44;;;29.45;33.49
43119;BME280;28729;49.838;8.650;2023-06-10T17:32:35;99348.00;;;29.24;34.19
43119;BME280;28729;49.838;8.650;2023-06-10T17:36:38;99355.66;;;29.20;34.51
43119;BME280;28729;49.838;8.650;2023-06-10T17:40:40;99353.03;;;29.04;35.05
43119;BME280;28729;49.838;8.650;2023-06-10T17:44:42;99368.09;;;28.81;36.03
43119;BME280;28729;49.838;8.650;2023-06-10T17:48:44;99364.56;;;28.61;36.51
43119;BME280;28729;49.838;8.650;2023-06-10T17:52:45;99378.09;;;28.45;37.38
43119;BME280;28729;49.838;8.650;2023-06-10T17:56:47;99377.00;;;28.30;37.59
43119;BME280;28729;49.838;8.650;2023-06-10T18:00:49;99391.75;;;28.16;38.56
43119;BME280;28729;49.838;8.650;2023-06-10T18:04:51;99392.69;;;28.01;39.21
43119;BME280;28729;49.838;8.650;2023-06-10T18:08:53;99394.91;;;27.88;39.76
43119;BME280;28729;49.838;8.650;2023-06-10T18:12:54;99387.25;;;27.69;41.60
43119;BME280;28729;49.838;8.650;2023-06-10T18:16:56;99396.16;;;27.48;42.30
43119;BME280;28729;49.838;8.650;2023-06-10T18:20:58;99398.09;;;27.25;42.96
43119;BME280;28729;49.838;8.650;2023-06-10T18:25:03;99401.88;;;26.97;44.29
43119;BME280;28729;49.838;8.650;2023-06-10T18:29:06;99408.19;;;26.71;45.22
43119;BME280;28729;49.838;8.650;2023-06-10T18:33:09;99407.19;;;26.48;45.98
43119;BME280;28729;49.838;8.650;2023-06-10T18:37:11;99415.09;;;26.26;46.92
43119;BME280;28729;49.838;8.650;2023-06-10T18:41:12;99428.69;;;26.05;48.53
43119;BME280;28729;49.838;8.650;2023-06-10T18:45:14;99425.47;;;25.90;48.74
43119;BME280;28729;49.838;8.650;2023-06-10T18:49:17;99432.59;;;25.72;49.63
43119;BME280;28729;49.838;8.650;2023-06-10T18:53:19;99445.88;;;25.56;50.18
43119;BME280;28729;49.838;8.650;2023-06-10T18:57:22;99445.44;;;25.41;51.31
43119;BME280;28729;49.838;8.650;2023-06-10T19:01:24;99444.91;;;25.23;52.68
43119;BME280;28729;49.838;8.650;2023-06-10T19:05:27;99450.00;;;25.06;53.02
43119;BME280;28729;49.838;8.650;2023-06-10T19:09:29;99452.03;;;24.93;53.28
43119;BME280;28729;49.838;8.650;2023-06-10T19:13:31;99464.56;;;24.83;54.00
43119;BME280;28729;49.838;8.650;2023-06-10T19:17:33;99465.28;;;24.68;54.11
43119;BME280;28729;49.838;8.650;2023-06-10T19:21:36;99467.63;;;24.53;55.42
43119;BME280;28729;49.838;8.650;2023-06-10T19:25:38;99468.69;;;24.37;56.64
43119;BME280;28729;49.838;8.650;2023-06-10T19:29:39;99480.25;;;24.23;58.15
43119;BME280;28729;49.838;8.650;2023-06-10T19:33:41;99481.16;;;24.02;59.61
43119;BME280;28729;49.838;8.650;2023-06-10T19:37:43;99485.44;;;23.87;59.72
43119;BME280;28729;49.838;8.650;2023-06-10T19:41:45;99492.91;;;23.71;60.89
43119;BME280;28729;49.838;8.650;2023-06-10T19:45:47;99493.84;;;23.54;61.52
43119;BME280;28729;49.838;8.650;2023-06-10T19:49:48;99488.84;;;23.39;62.52
43119;BME280;28729;49.838;8.650;2023-06-10T19:53:50;99499.53;;;23.25;63.51
43119;BME280;28729;49.838;8.650;2023-06-10T19:57:52;99491.03;;;23.12;64.64
43119;BME280;28729;49.838;8.650;2023-06-10T20:01:58;99501.38;;;23.00;66.06
43119;BME280;28729;49.838;8.650;2023-06-10T20:06:00;99494.34;;;22.85;65.64
43119;BME280;28729;49.838;8.650;2023-06-10T20:10:02;99508.56;;;22.80;67.27
43119;BME280;28729;49.838;8.650;2023-06-10T20:14:04;99500.69;;;22.73;68.13
43119;BME280;28729;49.838;8.650;2023-06-10T20:18:06;99499.38;;;22.70;69.58
43119;BME280;28729;49.838;8.650;2023-06-10T20:22:08;99512.09;;;22.68;70.54
43119;BME280;28729;49.838;8.650;2023-06-10T20:26:11;99515.72;;;22.68;71.29
43119;BME280;28729;49.838;8.650;2023-06-10T20:30:13;99516.53;;;22.69;71.27
43119;BME280;28729;49.838;8.650;2023-06-10T20:34:16;99520.34;;;22.73;71.24
43119;BME280;28729;49.838;8.650;2023-06-10T20:38:18;99530.41;;;22.74;71.76
43119;BME280;28729;49.838;8.650;2023-06-10T20:42:20;99535.19;;;22.73;71.19
43119;BME280;28729;49.838;8.650;2023-06-10T20:46:22;99536.47;;;22.85;71.49
43119;BME280;28729;49.838;8.650;2023-06-10T20:50:24;99536.13;;;22.86;71.44
43119;BME280;28729;49.838;8.650;2023-06-10T20:54:26;99532.63;;;22.89;71.67
43119;BME280;28729;49.838;8.650;2023-06-10T20:58:28;99542.72;;;22.90;71.66
43119;BME280;28729;49.838;8.650;2023-06-10T21:02:29;99543.88;;;22.89;72.04
43119;BME280;28729;49.838;8.650;2023-06-10T21:06:31;99544.38;;;22.91;72.59
43119;BME280;28729;49.838;8.650;2023-06-10T21:10:33;99549.84;;;22.88;73.21
43119;BME280;28729;49.838;8.650;2023-06-10T21:14:35;99552.97;;;22.86;73.91
43119;BME280;28729;49.838;8.650;2023-06-10T21:18:37;99555.28;;;22.84;73.74
43119;BME280;28729;49.838;8.650;2023-06-10T21:22:39;99556.13;;;22.85;73.21
43119;BME280;28729;49.838;8.650;2023-06-10T21:26:41;99551.16;;;22.90;73.06